createdAt,value
2023-02-23T00:01:35.593Z,26.08
2023-02-23T00:04:05.632Z,22.75
2023-02-23T00:06:37.088Z,22.85
2023-02-23T00:09:12.214Z,28.45
2023-02-23T00:11:41.400Z,21.02
2023-02-23T00:14:12.040Z,26.27
2023-02-23T00:16:45.645Z,37.28
2023-02-23T00:19:15.116Z,22.20
2023-02-23T00:21:45.524Z,31.25
2023-02-23T00:24:16.770Z,26.10
2023-02-23T00:26:47.944Z,19.35
2023-02-23T00:29:26.585Z,23.80
2023-02-23T00:31:57.373Z,23.63
2023-02-23T00:34:26.553Z,36.67
2023-02-23T00:36:56.421Z,30.52
2023-02-23T00:39:29.356Z,21.55
2023-02-23T00:42:03.137Z,27.50
2023-02-23T00:44:35.074Z,24.45
2023-02-23T00:47:05.463Z,29.48
2023-02-23T00:49:34.944Z,27.02
2023-02-23T00:52:08.883Z,24.77
2023-02-23T00:54:38.027Z,24.67
2023-02-23T00:57:09.757Z,34.78
2023-02-23T00:59:40.487Z,28.73
2023-02-23T01:02:09.771Z,28.02
2023-02-23T01:04:38.951Z,24.42
2023-02-23T01:07:08.540Z,32.20
2023-02-23T01:09:38.281Z,36.60
2023-02-23T01:12:08.226Z,26.02
2023-02-23T01:14:39.394Z,24.08
2023-02-23T01:17:08.823Z,24.52
2023-02-23T01:19:38.875Z,24.88
2023-02-23T01:22:08.043Z,22.63
2023-02-23T01:24:38.728Z,26.10
2023-02-23T01:27:07.973Z,26.35
2023-02-23T01:29:37.315Z,26.98
2023-02-23T01:32:08.104Z,25.35
2023-02-23T01:34:37.171Z,29.15
2023-02-23T01:37:06.344Z,30.42
2023-02-23T01:39:35.721Z,27.05
2023-02-23T01:42:05.806Z,30.20
2023-02-23T01:45:18.912Z,23.13
2023-02-23T01:47:49.742Z,28.15
2023-02-23T01:50:19.974Z,29.23
2023-02-23T01:52:52.020Z,19.30
2023-02-23T01:55:24.657Z,25.15
2023-02-23T01:58:04.454Z,28.05
2023-02-23T02:00:36.765Z,23.77
2023-02-23T02:03:15.899Z,23.25
2023-02-23T02:05:46.608Z,34.42
2023-02-23T02:08:21.812Z,26.98
2023-02-23T02:10:56.341Z,24.63
2023-02-23T02:13:30.502Z,32.15
2023-02-23T02:16:31.497Z,26.35
2023-02-23T02:19:38.673Z,36.55
2023-02-23T02:22:38.483Z,29.48
2023-02-23T02:25:48.652Z,27.25
2023-02-23T02:28:58.281Z,31.00
2023-02-23T02:32:54.352Z,30.40
2023-02-23T02:36:01.755Z,35.65
2023-02-23T02:38:51.316Z,29.45
2023-02-23T02:57:21.593Z,35.65
2023-02-23T03:00:09.855Z,26.10
2023-02-23T03:02:59.233Z,24.40
2023-02-23T03:06:05.618Z,30.55
2023-02-23T03:09:07.583Z,27.52
2023-02-23T03:11:59.221Z,31.58
2023-02-23T03:14:52.714Z,29.83
2023-02-23T03:17:49.657Z,30.58
2023-02-23T03:20:47.063Z,20.50
2023-02-23T03:23:43.719Z,28.30
2023-02-23T03:26:38.583Z,27.05
2023-02-23T03:29:33.161Z,26.25
2023-02-23T03:32:28.629Z,24.30
2023-02-23T03:35:22.183Z,27.02
2023-02-23T03:38:18.859Z,33.85
2023-02-23T03:41:07.899Z,31.90
2023-02-23T03:44:01.310Z,40.13
2023-02-23T03:46:50.651Z,26.55
2023-02-23T03:49:42.475Z,25.02
2023-02-23T03:52:34.839Z,23.38
2023-02-23T03:55:30.055Z,33.92
2023-02-23T03:58:23.822Z,33.83
2023-02-23T04:01:30.949Z,30.63
2023-02-23T04:08:23.932Z,31.15
2023-02-23T04:11:17.504Z,29.50
2023-02-23T04:13:49.011Z,28.48
2023-02-23T04:16:18.219Z,25.52
2023-02-23T04:19:10.601Z,34.47
2023-02-23T04:22:03.728Z,32.33
2023-02-23T04:24:40.269Z,29.30
2023-02-23T04:27:22.357Z,25.80
2023-02-23T04:30:05.014Z,40.05
2023-02-23T04:33:21.330Z,28.50
2023-02-23T04:36:00.683Z,38.05
2023-02-23T04:38:46.602Z,25.10
2023-02-23T04:41:56.643Z,35.08
2023-02-23T04:45:17.043Z,30.65
2023-02-23T04:48:08.475Z,29.45
2023-02-23T06:43:52.070Z,28.10
2023-02-23T06:46:21.381Z,21.83
2023-02-23T06:48:57.013Z,32.20
2023-02-23T06:51:26.318Z,34.92
2023-02-23T06:53:55.456Z,24.05
2023-02-23T06:56:24.569Z,29.02
2023-02-23T06:58:55.026Z,26.63
2023-02-23T07:01:24.462Z,28.90
2023-02-23T07:04:04.279Z,30.83
2023-02-23T07:06:39.070Z,28.83
2023-02-23T07:09:10.452Z,35.92
2023-02-23T07:11:50.818Z,27.45
2023-02-23T07:15:23.209Z,37.60
2023-02-23T08:15:56.698Z,34.00
2023-02-23T08:18:28.009Z,26.67
2023-02-23T08:21:01.580Z,29.02
2023-02-23T08:23:32.827Z,32.22
2023-02-23T08:26:04.008Z,28.27
2023-02-23T08:28:34.738Z,38.38
2023-02-23T08:31:13.660Z,27.48
2023-02-23T08:33:43.099Z,25.83
2023-02-23T08:36:12.254Z,36.57
2023-02-23T08:38:41.247Z,33.42
2023-02-23T08:41:10.348Z,28.67
2023-02-23T08:43:39.965Z,31.20
2023-02-23T08:46:09.384Z,36.70
2023-02-23T08:48:40.828Z,31.92
2023-02-23T08:51:10.268Z,24.53
2023-02-23T08:53:39.372Z,24.95
2023-02-23T08:56:09.832Z,44.65
2023-02-23T08:58:38.903Z,25.35
2023-02-23T09:01:08.065Z,23.30
2023-02-23T09:03:40.520Z,25.02
2023-02-23T09:06:13.978Z,33.03
2023-02-23T09:08:43.100Z,30.25
2023-02-23T09:11:12.169Z,32.90
2023-02-23T09:13:41.223Z,22.67
2023-02-23T09:16:10.737Z,33.28
2023-02-23T09:18:41.795Z,26.70
2023-02-23T09:21:19.393Z,25.17
2023-02-23T09:23:51.399Z,27.38
2023-02-23T09:26:21.854Z,31.35
2023-02-23T09:28:51.704Z,26.38
2023-02-23T09:31:24.084Z,28.23
2023-02-23T09:33:55.101Z,25.58
2023-02-23T09:36:26.291Z,27.98
2023-02-23T09:38:57.791Z,24.27
2023-02-23T09:41:49.111Z,27.25
2023-02-23T09:44:28.122Z,33.78
2023-02-23T09:47:11.633Z,28.88
2023-02-23T09:49:46.505Z,23.38
2023-02-23T09:52:21.031Z,26.52
2023-02-23T09:54:50.131Z,37.15
2023-02-23T09:57:25.287Z,27.23
2023-02-23T09:59:54.365Z,31.42
2023-02-23T10:02:30.243Z,22.98
2023-02-23T10:05:03.909Z,39.00
2023-02-23T10:07:43.562Z,32.47
2023-02-23T10:10:26.333Z,35.58
2023-02-23T10:13:04.485Z,29.15
2023-02-23T10:15:39.990Z,37.95
2023-02-23T10:18:19.261Z,29.33
2023-02-23T10:20:57.427Z,35.13
2023-02-23T10:23:31.474Z,33.45
2023-02-23T10:26:03.614Z,28.53
2023-02-23T10:28:37.308Z,26.33
2023-02-23T10:31:22.442Z,27.70
2023-02-23T10:33:53.953Z,32.47
2023-02-23T10:36:35.540Z,29.83
2023-02-23T10:39:07.292Z,31.77
2023-02-23T10:41:37.673Z,33.70
2023-02-23T10:44:16.672Z,23.83
2023-02-23T10:46:48.477Z,34.20
2023-02-23T10:49:23.011Z,31.10
2023-02-23T10:51:58.208Z,32.00
2023-02-23T10:54:38.906Z,29.50
2023-02-23T10:57:09.584Z,30.60
2023-02-23T10:59:38.617Z,32.38
2023-02-23T11:02:31.419Z,28.53
2023-02-23T11:05:02.030Z,30.37
2023-02-23T11:07:34.603Z,22.13
2023-02-23T11:10:27.547Z,27.77
2023-02-23T11:12:56.736Z,30.60
2023-02-23T11:15:48.180Z,38.13
2023-02-23T11:18:24.402Z,32.30
2023-02-23T11:20:54.840Z,27.67
2023-02-23T11:23:29.374Z,26.47
2023-02-23T11:26:01.431Z,30.27
2023-02-23T11:28:34.996Z,25.33
2023-02-23T11:31:10.481Z,29.47
2023-02-23T11:33:41.458Z,31.47
2023-02-23T11:36:26.821Z,38.57
2023-02-23T11:39:06.432Z,27.58
2023-02-23T11:41:37.448Z,27.43
2023-02-23T11:44:07.516Z,32.37
2023-02-23T11:46:40.142Z,29.47
2023-02-23T11:49:15.712Z,29.60
2023-02-23T11:51:50.390Z,30.63
2023-02-23T11:54:24.978Z,32.67
2023-02-23T11:56:55.507Z,25.67
2023-02-23T11:59:31.366Z,30.48
2023-02-23T12:02:19.307Z,29.17
2023-02-23T12:04:48.911Z,37.67
2023-02-23T12:07:42.749Z,33.43
2023-02-23T12:10:24.050Z,31.55
2023-02-23T12:13:04.592Z,22.00
2023-02-23T12:15:43.184Z,34.53
2023-02-23T12:18:20.412Z,32.73
2023-02-23T12:20:54.310Z,36.97
2023-02-23T12:23:27.936Z,31.30
2023-02-23T12:26:02.703Z,34.00
2023-02-23T12:28:37.366Z,27.87
2023-02-23T12:31:21.038Z,30.83
2023-02-23T12:33:54.874Z,29.40
2023-02-23T12:36:31.926Z,27.83
2023-02-23T12:39:07.468Z,27.27
2023-02-23T12:41:41.818Z,31.70
2023-02-23T12:44:23.379Z,27.98
2023-02-23T12:46:56.192Z,28.70
2023-02-23T12:49:33.305Z,29.13
2023-02-23T12:52:09.627Z,33.45
2023-02-23T12:54:38.867Z,31.65
2023-02-23T12:57:19.634Z,32.67
2023-02-23T13:00:24.154Z,30.23
2023-02-23T13:03:08.842Z,27.97
2023-02-23T13:05:42.174Z,29.98
2023-02-23T13:08:25.801Z,25.70
2023-02-23T13:11:04.245Z,35.13
2023-02-23T13:13:42.105Z,29.80
2023-02-23T13:16:20.060Z,32.93
2023-02-23T13:18:56.588Z,35.63
2023-02-23T13:21:31.869Z,30.47
2023-02-23T13:24:07.391Z,35.60
2023-02-23T13:26:44.386Z,30.07
2023-02-23T13:29:28.026Z,35.93
2023-02-23T13:31:57.390Z,32.77
2023-02-23T13:34:29.062Z,34.00
2023-02-23T13:37:00.312Z,36.43
2023-02-23T13:40:00.875Z,26.08
2023-02-23T13:42:44.323Z,36.90
2023-02-23T13:45:42.243Z,34.00
2023-02-23T13:48:21.580Z,31.10
2023-02-23T13:50:59.946Z,28.33
2023-02-23T13:53:44.901Z,36.50
2023-02-23T13:56:18.716Z,33.20
2023-02-23T13:58:52.304Z,28.10
2023-02-23T14:01:28.940Z,28.13
2023-02-23T14:04:00.329Z,27.50
2023-02-23T14:06:32.497Z,35.77
2023-02-23T14:09:08.973Z,40.07
2023-02-23T14:11:45.932Z,34.13
2023-02-23T14:14:37.436Z,29.30
2023-02-23T14:17:42.865Z,37.80
2023-02-23T14:20:37.245Z,31.93
2023-02-23T14:23:33.421Z,41.47
2023-02-23T14:26:19.394Z,40.33
2023-02-23T14:29:29.290Z,32.43
2023-02-23T14:32:05.589Z,34.83
2023-02-23T14:34:54.512Z,34.17
2023-02-23T14:37:32.926Z,37.67
2023-02-23T14:40:16.046Z,38.63
2023-02-23T14:42:56.809Z,41.43
2023-02-23T14:45:29.551Z,35.50
2023-02-23T14:48:07.745Z,42.30
2023-02-23T14:50:47.706Z,41.73
2023-02-23T14:53:26.470Z,36.00
2023-02-23T14:55:58.784Z,44.93
2023-02-23T14:58:34.631Z,39.53
2023-02-23T15:01:12.398Z,55.40
2023-02-23T15:03:46.681Z,44.85
2023-02-23T15:06:25.485Z,47.10
2023-02-23T15:08:57.436Z,39.70
2023-02-23T15:11:28.190Z,39.87
2023-02-23T15:14:00.123Z,43.43
2023-02-23T15:16:36.714Z,43.90
2023-02-23T15:19:09.084Z,45.37
2023-02-23T15:21:43.889Z,45.83
2023-02-23T15:24:17.024Z,49.28
2023-02-23T15:26:47.892Z,41.90
2023-02-23T15:29:28.543Z,52.63
2023-02-23T15:31:58.815Z,37.53
2023-02-23T15:34:31.965Z,44.50
2023-02-23T15:37:07.088Z,43.73
2023-02-23T15:39:40.461Z,43.93
2023-02-23T15:42:15.790Z,37.90
2023-02-23T15:44:45.880Z,49.67
2023-02-23T15:47:23.775Z,41.30
2023-02-23T15:49:59.090Z,52.13
2023-02-23T15:52:35.523Z,50.37
2023-02-23T15:55:09.807Z,48.93
2023-02-23T15:57:49.633Z,42.53
2023-02-23T16:00:32.932Z,47.03
2023-02-23T16:03:06.561Z,49.08
2023-02-23T16:05:46.463Z,42.73
2023-02-23T16:08:30.353Z,41.33
2023-02-23T16:11:12.342Z,52.37
2023-02-23T16:13:46.366Z,48.60
2023-02-23T16:16:27.726Z,53.30
2023-02-23T16:19:03.235Z,47.53
2023-02-23T16:21:35.335Z,51.70
2023-02-23T16:24:22.332Z,49.43
2023-02-23T16:26:58.076Z,61.43
2023-02-23T16:29:33.350Z,49.70
2023-02-23T16:32:05.021Z,60.63
2023-02-23T16:34:37.319Z,53.53
2023-02-23T16:37:18.362Z,56.50
2023-02-23T16:39:52.848Z,55.57
2023-02-23T16:42:33.277Z,62.37
2023-02-23T16:45:05.476Z,61.83
2023-02-23T16:47:38.925Z,58.40
2023-02-23T16:50:20.727Z,61.03
2023-02-23T16:52:56.300Z,58.97
2023-02-23T16:55:33.564Z,57.13
2023-02-23T16:58:06.145Z,61.25
2023-02-23T17:00:42.521Z,61.93
2023-02-23T17:03:21.134Z,69.47
2023-02-23T17:05:52.997Z,56.25
2023-02-23T17:08:25.499Z,62.17
2023-02-23T17:11:00.290Z,61.90
2023-02-23T17:13:37.774Z,77.43
2023-02-23T17:16:10.504Z,71.47
2023-02-23T17:18:43.085Z,60.40
2023-02-23T17:21:17.178Z,72.37
2023-02-23T17:23:51.713Z,72.30
2023-02-23T17:26:27.729Z,67.25
2023-02-23T17:29:01.837Z,69.88
2023-02-23T17:31:34.984Z,73.70
2023-02-23T17:34:07.998Z,79.53
2023-02-23T17:36:39.531Z,79.83
2023-02-23T17:39:14.827Z,75.30
2023-02-23T17:41:48.246Z,68.80
2023-02-23T17:44:18.770Z,83.80
2023-02-23T17:46:49.170Z,82.32
2023-02-23T17:49:19.839Z,80.65
2023-02-23T17:51:51.728Z,87.70
2023-02-23T17:54:22.069Z,91.95
2023-02-23T17:56:55.447Z,87.00
2023-02-23T17:59:25.865Z,82.83
2023-02-23T18:01:57.548Z,80.80
2023-02-23T18:04:33.135Z,88.60
2023-02-23T18:07:06.400Z,71.80
2023-02-23T18:09:36.625Z,76.15
2023-02-23T18:12:09.994Z,88.47
2023-02-23T18:14:40.591Z,82.35
2023-02-23T18:17:11.193Z,81.07
2023-02-23T18:19:42.048Z,69.85
2023-02-23T18:22:12.979Z,80.50
2023-02-23T18:24:43.400Z,86.20
2023-02-23T18:27:16.174Z,93.13
2023-02-23T18:29:47.437Z,92.88
2023-02-23T18:32:18.258Z,86.80
2023-02-23T18:34:48.647Z,84.68
2023-02-23T18:37:26.678Z,85.55
2023-02-23T18:39:59.919Z,74.88
2023-02-23T18:42:33.395Z,87.40
2023-02-23T18:45:04.789Z,95.00
2023-02-23T18:47:37.037Z,86.90
2023-02-23T18:50:10.517Z,95.30
2023-02-23T18:52:43.175Z,91.63
2023-02-23T18:55:13.799Z,83.10
2023-02-23T18:57:46.249Z,83.03
2023-02-23T19:00:18.754Z,92.60
2023-02-23T19:02:48.909Z,96.28
2023-02-23T19:05:22.082Z,77.50
2023-02-23T19:07:54.983Z,93.05
2023-02-23T19:10:25.853Z,78.50
2023-02-23T19:13:00.700Z,89.55
2023-02-23T19:15:31.498Z,84.15
2023-02-23T19:18:06.758Z,81.68
2023-02-23T19:20:38.817Z,72.43
2023-02-23T19:23:15.669Z,79.88
2023-02-23T19:25:50.671Z,76.65
2023-02-23T19:28:22.642Z,69.10
2023-02-23T19:31:02.141Z,69.57
2023-02-23T19:33:34.013Z,75.05
2023-02-23T19:36:09.182Z,70.03
2023-02-23T19:38:39.814Z,67.78
2023-02-23T19:41:13.221Z,61.30
2023-02-23T19:43:48.769Z,57.45
2023-02-23T19:46:22.577Z,42.88
2023-02-23T19:48:55.989Z,53.55
2023-02-23T19:51:27.444Z,59.95
2023-02-23T19:54:03.433Z,42.47
2023-02-23T19:56:34.620Z,55.63
2023-02-23T19:59:08.438Z,47.08
2023-02-23T20:01:43.337Z,46.40
2023-02-23T20:04:17.590Z,39.45
2023-02-23T20:06:50.758Z,46.15
2023-02-23T20:09:22.014Z,41.08
2023-02-23T20:11:54.699Z,50.33
2023-02-23T20:14:27.435Z,46.65
2023-02-23T20:16:58.169Z,43.40
2023-02-23T20:19:29.277Z,53.08
2023-02-23T20:22:00.225Z,51.25
2023-02-23T20:24:33.116Z,52.13
2023-02-23T20:27:05.507Z,60.35
2023-02-23T20:29:39.547Z,50.20
2023-02-23T20:32:10.994Z,66.05
2023-02-23T20:34:46.344Z,68.72
2023-02-23T20:37:18.659Z,55.92
2023-02-23T20:39:51.303Z,60.22
2023-02-23T20:42:23.069Z,64.60
2023-02-23T20:44:57.738Z,70.47
2023-02-23T20:47:29.384Z,68.10
2023-02-23T20:50:02.289Z,60.53
2023-02-23T20:52:33.264Z,73.78
2023-02-23T20:55:07.027Z,71.85
2023-02-23T20:57:38.722Z,70.47
2023-02-23T21:00:20.840Z,82.20
2023-02-23T21:02:56.047Z,61.22
2023-02-23T21:05:34.736Z,66.47
2023-02-23T21:08:08.376Z,59.90
2023-02-23T21:10:47.000Z,73.10
2023-02-23T21:14:14.182Z,59.78
2023-02-23T21:16:47.410Z,78.07
2023-02-23T21:19:20.738Z,80.07
2023-02-23T21:21:58.525Z,69.30
2023-02-23T21:24:32.362Z,62.47
2023-02-23T21:27:05.834Z,65.57
2023-02-23T21:29:40.220Z,66.18
2023-02-23T21:32:17.577Z,56.90
2023-02-23T21:34:49.233Z,74.63
2023-02-23T21:37:21.502Z,71.32
2023-02-23T21:39:56.232Z,78.63
2023-02-23T21:42:31.460Z,77.30
2023-02-23T21:45:02.187Z,61.13
2023-02-23T21:47:37.418Z,67.65
2023-02-23T21:50:13.529Z,62.65
2023-02-23T21:52:45.909Z,72.60
2023-02-23T21:55:22.773Z,88.65
2023-02-23T21:58:51.918Z,73.55
2023-02-23T22:01:27.191Z,64.43
2023-02-23T22:04:03.160Z,82.78
2023-02-23T22:06:39.016Z,82.90
2023-02-23T22:09:12.348Z,67.75
2023-02-23T22:11:47.206Z,79.90
2023-02-23T22:14:20.158Z,64.32
2023-02-23T22:16:56.510Z,58.20
2023-02-23T22:19:40.251Z,58.00
2023-02-23T22:22:10.581Z,61.00
2023-02-23T22:24:51.014Z,67.75
2023-02-23T22:27:25.722Z,71.07
2023-02-23T22:30:02.696Z,83.30
2023-02-23T22:32:36.312Z,72.88
2023-02-23T22:35:09.230Z,64.60
2023-02-23T22:37:44.992Z,83.47
2023-02-23T22:40:17.450Z,59.47
2023-02-23T22:42:50.169Z,72.15
2023-02-23T22:45:50.698Z,63.60
2023-02-23T22:48:23.913Z,62.75
2023-02-23T22:51:00.340Z,59.95
2023-02-23T22:53:32.325Z,54.90
2023-02-23T22:56:02.761Z,64.57
2023-02-23T22:58:35.600Z,52.47
2023-02-23T23:01:12.218Z,65.05
2023-02-23T23:03:46.028Z,70.10
2023-02-23T23:06:23.930Z,73.85
2023-02-23T23:08:56.746Z,70.43
2023-02-23T23:11:31.945Z,72.15
2023-02-23T23:14:10.139Z,64.47
2023-02-23T23:16:48.892Z,60.80
2023-02-23T23:19:25.500Z,57.80
2023-02-23T23:22:01.070Z,73.35
2023-02-23T23:24:33.389Z,53.40
2023-02-23T23:27:10.277Z,57.85
2023-02-23T23:29:46.274Z,65.85
2023-02-23T23:32:21.986Z,60.90
2023-02-23T23:34:57.453Z,63.63
2023-02-23T23:37:30.706Z,69.75
2023-02-23T23:40:06.222Z,62.45
2023-02-23T23:42:39.918Z,55.08
2023-02-23T23:45:14.888Z,62.03
2023-02-23T23:47:46.557Z,56.22
2023-02-23T23:50:19.277Z,59.00
2023-02-23T23:52:57.446Z,50.75
2023-02-23T23:55:32.524Z,56.50
2023-02-23T23:58:04.147Z,62.10
